Weather at Elibase Pelikan 1

Public forecast

Using degrees Celsius for public forecast. Weather courtesy of forecast.io.

Closest aviation weather report (METAR) to Elibase Pelikan 1

Closest report is Bolzano Airport, 2.4 nm (4.5 km) SSE. Retrieved 2021/06/19 20:50 UTC (31 minutes ago):

LIPB 192050Z VRB03KT CAVOK 27/15 Q1013 RMK MON INVIS

Closest aviation forecast (TAF) to Elibase Pelikan 1

Closest forecast is Bolzano Airport, 2.4 nm (4.5 km) SSE. Retrieved 2021/06/19 18:12 UTC (3 hours ago):

TAF TAF LIPB 192102Z 1918/2018 CNL